TimeEST,TemperatureF,Dew PointF,Humidity,Sea Level PressureIn,VisibilityMPH,Wind Direction,Wind SpeedMPH,Gust SpeedMPH,PrecipitationIn,Events,Conditions,WindDirDegrees,DateUTC
12:52 AM,37.0,26.1,65,30.13,10.0,NW,6.9,-,N/A,,Overcast,310,2013-12-24 05:52:00
1:52 AM,37.0,26.1,65,30.11,10.0,NNW,10.4,-,N/A,,Mostly Cloudy,330,2013-12-24 06:52:00
2:52 AM,37.0,26.1,65,30.12,10.0,NNW,8.1,-,N/A,,Clear,340,2013-12-24 07:52:00
3:52 AM,36.0,25.0,64,30.13,10.0,NNW,6.9,-,N/A,,Clear,330,2013-12-24 08:52:00
4:52 AM,35.1,24.1,64,30.13,10.0,NNW,11.5,-,N/A,,Clear,330,2013-12-24 09:52:00
5:52 AM,34.0,21.0,59,30.12,10.0,North,10.4,-,N/A,,Clear,350,2013-12-24 10:52:00
6:52 AM,33.1,19.9,59,30.14,10.0,NNW,6.9,-,N/A,,Clear,340,2013-12-24 11:52:00
7:52 AM,32.0,19.9,61,30.16,10.0,NNW,8.1,-,N/A,,Clear,340,2013-12-24 12:52:00
8:52 AM,32.0,16.0,52,30.17,10.0,NNW,11.5,-,N/A,,Clear,340,2013-12-24 13:52:00
9:52 AM,32.0,17.1,54,30.13,10.0,North,8.1,-,N/A,,Clear,10,2013-12-24 14:52:00
10:52 AM,33.1,15.1,48,30.14,10.0,NNW,8.1,-,N/A,,Clear,330,2013-12-24 15:52:00
11:52 AM,35.1,15.1,44,30.11,10.0,NNW,9.2,-,N/A,,Clear,340,2013-12-24 16:52:00
12:52 PM,36.0,15.1,43,30.08,10.0,North,5.8,-,N/A,,Clear,350,2013-12-24 17:52:00
1:52 PM,37.0,14.0,39,30.06,10.0,North,11.5,-,N/A,,Clear,350,2013-12-24 18:52:00
2:52 PM,35.1,14.0,42,30.07,10.0,North,10.4,-,N/A,,Overcast,10,2013-12-24 19:52:00
3:52 PM,35.1,14.0,42,30.10,10.0,NNW,8.1,-,N/A,,Overcast,340,2013-12-24 20:52:00
4:52 PM,34.0,15.1,46,30.12,10.0,Variable,6.9,-,N/A,,Overcast,0,2013-12-24 21:52:00
5:52 PM,30.9,21.0,67,30.16,10.0,NW,10.4,-,N/A,,Overcast,310,2013-12-24 22:52:00
6:52 PM,30.0,24.1,79,30.18,10.0,North,4.6,-,N/A,,Overcast,350,2013-12-24 23:52:00
7:00 PM,30.0,24.1,79,30.17,10.0,North,3.5,-,N/A,,Overcast,350,2013-12-25 00:00:00
7:22 PM,28.9,24.1,82,30.18,10.0,Calm,Calm,-,N/A,,Scattered Clouds,0,2013-12-25 00:22:00
7:52 PM,28.9,24.1,82,30.19,10.0,Calm,Calm,-,N/A,,Mostly Cloudy,0,2013-12-25 00:52:00
8:52 PM,28.9,17.1,61,30.22,10.0,NW,8.1,-,N/A,,Scattered Clouds,320,2013-12-25 01:52:00
9:52 PM,28.9,15.1,56,30.23,10.0,NNW,11.5,17.3,N/A,,Overcast,330,2013-12-25 02:52:00
10:52 PM,28.0,12.9,53,30.25,10.0,WNW,12.7,18.4,N/A,,Overcast,300,2013-12-25 03:52:00
11:52 PM,25.0,6.1,45,30.27,10.0,NNW,16.1,20.7,N/A,,Clear,340,2013-12-25 04:52:00